sensor_id;sensor_type;location;lat;lon;timestamp;pressure;altitude;pressure_sealevel;temperature;humidity
44481;BME280;30184;42.018;23.670;2023-04-08T00:01:40;91578.69;;;1.29;74.92
44481;BME280;30184;42.018;23.670;2023-04-08T00:04:10;91582.84;;;1.26;75.18
44481;BME280;30184;42.018;23.670;2023-04-08T00:06:40;91577.41;;;1.16;75.67
44481;BME280;30184;42.018;23.670;2023-04-08T00:09:09;91578.91;;;1.13;75.90
44481;BME280;30184;42.018;23.670;2023-04-08T00:11:38;91578.91;;;1.09;75.98
44481;BME280;30184;42.018;23.670;2023-04-08T00:14:08;91583.03;;;1.03;76.18
44481;BME280;30184;42.018;23.670;2023-04-08T00:16:37;91573.13;;;1.00;76.35
44481;BME280;30184;42.018;23.670;2023-04-08T00:19:06;91576.88;;;0.96;76.56
44481;BME280;30184;42.018;23.670;2023-04-08T00:21:36;91570.38;;;0.93;76.49
44481;BME280;30184;42.018;23.670;2023-04-08T00:24:05;91572.25;;;0.89;76.69
44481;BME280;30184;42.018;23.670;2023-04-08T00:26:34;91580.22;;;0.86;77.01
44481;BME280;30184;42.018;23.670;2023-04-08T00:29:04;91567.22;;;0.81;77.28
44481;BME280;30184;42.018;23.670;2023-04-08T00:31:33;91567.94;;;0.78;77.22
44481;BME280;30184;42.018;23.670;2023-04-08T00:34:02;91572.13;;;0.75;77.48
44481;BME280;30184;42.018;23.670;2023-04-08T00:36:31;91577.81;;;0.70;77.30
44481;BME280;30184;42.018;23.670;2023-04-08T00:39:02;91583.88;;;0.67;77.53
44481;BME280;30184;42.018;23.670;2023-04-08T00:41:33;91577.38;;;0.64;77.42
44481;BME280;30184;42.018;23.670;2023-04-08T00:44:03;91583.09;;;0.63;77.59
44481;BME280;30184;42.018;23.670;2023-04-08T00:46:33;91581.91;;;0.60;77.64
44481;BME280;30184;42.018;23.670;2023-04-08T00:49:03;91579.19;;;0.57;77.96
44481;BME280;30184;42.018;23.670;2023-04-08T00:51:32;91589.09;;;0.56;77.91
44481;BME280;30184;42.018;23.670;2023-04-08T00:54:04;91581.06;;;0.53;78.02
44481;BME280;30184;42.018;23.670;2023-04-08T00:56:34;91584.47;;;0.50;77.95
44481;BME280;30184;42.018;23.670;2023-04-08T00:59:03;91583.69;;;0.49;78.19
44481;BME280;30184;42.018;23.670;2023-04-08T01:01:35;91581.38;;;0.48;78.32
44481;BME280;30184;42.018;23.670;2023-04-08T01:04:09;91573.78;;;0.46;78.71
44481;BME280;30184;42.018;23.670;2023-04-08T01:06:42;91583.69;;;0.46;78.78
44481;BME280;30184;42.018;23.670;2023-04-08T01:09:18;91597.38;;;0.44;78.77
44481;BME280;30184;42.018;23.670;2023-04-08T01:11:49;91590.88;;;0.42;79.04
44481;BME280;30184;42.018;23.670;2023-04-08T01:14:20;91596.56;;;0.40;78.90
44481;BME280;30184;42.018;23.670;2023-04-08T01:16:51;91602.69;;;0.41;79.16
44481;BME280;30184;42.018;23.670;2023-04-08T01:19:24;91594.66;;;0.41;79.44
44481;BME280;30184;42.018;23.670;2023-04-08T01:21:54;91597.38;;;0.44;79.72
44481;BME280;30184;42.018;23.670;2023-04-08T01:24:32;91602.72;;;0.44;79.75
44481;BME280;30184;42.018;23.670;2023-04-08T01:27:03;91601.97;;;0.44;79.78
44481;BME280;30184;42.018;23.670;2023-04-08T01:29:33;91601.97;;;0.47;79.92
44481;BME280;30184;42.018;23.670;2023-04-08T01:32:05;91605.06;;;0.49;79.81
44481;BME280;30184;42.018;23.670;2023-04-08T01:34:35;91605.09;;;0.53;79.84
44481;BME280;30184;42.018;23.670;2023-04-08T01:37:06;91617.28;;;0.50;79.87
44481;BME280;30184;42.018;23.670;2023-04-08T01:39:35;91616.19;;;0.55;79.91
44481;BME280;30184;42.018;23.670;2023-04-08T01:42:08;91608.94;;;0.55;80.13
44481;BME280;30184;42.018;23.670;2023-04-08T01:44:37;91615.50;;;0.61;80.12
44481;BME280;30184;42.018;23.670;2023-04-08T01:47:08;91619.34;;;0.64;79.97
44481;BME280;30184;42.018;23.670;2023-04-08T01:49:38;91623.94;;;0.67;79.61
44481;BME280;30184;42.018;23.670;2023-04-08T01:52:07;91620.94;;;0.72;79.63
44481;BME280;30184;42.018;23.670;2023-04-08T01:54:37;91623.25;;;0.77;79.53
44481;BME280;30184;42.018;23.670;2023-04-08T01:57:08;91623.72;;;0.83;79.45
44481;BME280;30184;42.018;23.670;2023-04-08T01:59:39;91622.25;;;0.89;79.16
44481;BME280;30184;42.018;23.670;2023-04-08T02:02:10;91622.28;;;0.92;78.76
44481;BME280;30184;42.018;23.670;2023-04-08T02:04:40;91618.06;;;0.91;78.75
44481;BME280;30184;42.018;23.670;2023-04-08T02:07:09;91623.78;;;0.93;78.50
44481;BME280;30184;42.018;23.670;2023-04-08T02:09:39;91620.81;;;0.98;78.53
44481;BME280;30184;42.018;23.670;2023-04-08T02:12:09;91631.53;;;1.02;78.52
44481;BME280;30184;42.018;23.670;2023-04-08T02:14:38;91633.09;;;1.06;78.43
44481;BME280;30184;42.018;23.670;2023-04-08T02:17:10;91628.16;;;1.08;78.13
44481;BME280;30184;42.018;23.670;2023-04-08T02:19:40;91623.22;;;1.10;77.90
44481;BME280;30184;42.018;23.670;2023-04-08T02:22:15;91618.66;;;1.15;77.78
44481;BME280;30184;42.018;23.670;2023-04-08T02:24:45;91619.03;;;1.17;77.71
44481;BME280;30184;42.018;23.670;2023-04-08T02:27:16;91603.78;;;1.21;77.55
44481;BME280;30184;42.018;23.670;2023-04-08T02:29:46;91611.06;;;1.24;77.33
44481;BME280;30184;42.018;23.670;2023-04-08T02:32:17;91605.00;;;1.27;77.49
44481;BME280;30184;42.018;23.670;2023-04-08T02:34:46;91605.41;;;1.29;77.11
44481;BME280;30184;42.018;23.670;2023-04-08T02:37:16;91600.44;;;1.31;77.13
44481;BME280;30184;42.018;23.670;2023-04-08T02:39:45;91603.50;;;1.33;76.87
44481;BME280;30184;42.018;23.670;2023-04-08T02:42:16;91598.16;;;1.33;76.62
44481;BME280;30184;42.018;23.670;2023-04-08T02:44:45;91598.19;;;1.36;77.01
44481;BME280;30184;42.018;23.670;2023-04-08T02:47:14;91605.47;;;1.39;77.00
44481;BME280;30184;42.018;23.670;2023-04-08T02:49:43;91601.28;;;1.42;76.93
44481;BME280;30184;42.018;23.670;2023-04-08T02:52:12;91605.50;;;1.43;76.53
44481;BME280;30184;42.018;23.670;2023-04-08T02:54:41;91597.47;;;1.43;76.76
44481;BME280;30184;42.018;23.670;2023-04-08T02:57:10;91599.78;;;1.44;76.79
44481;BME280;30184;42.018;23.670;2023-04-08T02:59:41;91602.09;;;1.46;76.86
44481;BME280;30184;42.018;23.670;2023-04-08T03:02:10;91601.31;;;1.49;77.19
44481;BME280;30184;42.018;23.670;2023-04-08T03:04:39;91604.03;;;1.53;77.37
44481;BME280;30184;42.018;23.670;2023-04-08T03:07:08;91596.41;;;1.55;77.51
44481;BME280;30184;42.018;23.670;2023-04-08T03:09:37;91595.28;;;1.56;77.70
44481;BME280;30184;42.018;23.670;2023-04-08T03:12:06;91595.66;;;1.58;77.67
44481;BME280;30184;42.018;23.670;2023-04-08T03:14:35;91604.84;;;1.60;77.47
44481;BME280;30184;42.018;23.670;2023-04-08T03:17:06;91602.56;;;1.62;77.39
44481;BME280;30184;42.018;23.670;2023-04-08T03:19:35;91605.25;;;1.62;77.65
44481;BME280;30184;42.018;23.670;2023-04-08T03:22:04;91599.16;;;1.65;77.39
44481;BME280;30184;42.018;23.670;2023-04-08T03:24:33;91604.88;;;1.67;77.10
44481;BME280;30184;42.018;23.670;2023-04-08T03:27:02;91596.88;;;1.71;76.98
44481;BME280;30184;42.018;23.670;2023-04-08T03:29:31;91588.91;;;1.74;77.21
44481;BME280;30184;42.018;23.670;2023-04-08T03:32:00;91583.91;;;1.76;77.38
44481;BME280;30184;42.018;23.670;2023-04-08T03:34:30;91587.75;;;1.79;77.65
44481;BME280;30184;42.018;23.670;2023-04-08T03:36:59;91595.41;;;1.80;77.93
44481;BME280;30184;42.018;23.670;2023-04-08T03:39:28;91595.41;;;1.80;77.90
44481;BME280;30184;42.018;23.670;2023-04-08T03:41:57;91592.38;;;1.82;77.43
44481;BME280;30184;42.018;23.670;2023-04-08T03:44:27;91590.09;;;1.84;77.14
44481;BME280;30184;42.018;23.670;2023-04-08T03:46:57;91590.88;;;1.84;76.71
44481;BME280;30184;42.018;23.670;2023-04-08T03:49:26;91597.00;;;1.85;76.59
44481;BME280;30184;42.018;23.670;2023-04-08T03:51:56;91601.56;;;1.84;76.83
44481;BME280;30184;42.018;23.670;2023-04-08T03:54:26;91603.84;;;1.86;76.86
44481;BME280;30184;42.018;23.670;2023-04-08T03:56:55;91611.50;;;1.87;76.95
44481;BME280;30184;42.018;23.670;2023-04-08T03:59:24;91606.19;;;1.91;76.63
44481;BME280;30184;42.018;23.670;2023-04-08T04:01:53;91613.47;;;1.94;76.48
44481;BME280;30184;42.018;23.670;2023-04-08T04:04:23;91610.03;;;1.94;76.59
44481;BME280;30184;42.018;23.670;2023-04-08T04:06:52;91610.78;;;1.98;76.59
44481;BME280;30184;42.018;23.670;2023-04-08T04:09:22;91615.38;;;1.97;76.49
44481;BME280;30184;42.018;23.670;2023-04-08T04:11:51;91612.31;;;1.95;76.98
44481;BME280;30184;42.018;23.670;2023-04-08T04:14:20;91622.28;;;1.98;77.06
44481;BME280;30184;42.018;23.670;2023-04-08T04:16:49;91620.72;;;1.97;77.32
44481;BME280;30184;42.018;23.670;2023-04-08T04:19:18;91629.53;;;1.98;77.09
44481;BME280;30184;42.018;23.670;2023-04-08T04:21:47;91620.72;;;1.97;77.19
44481;BME280;30184;42.018;23.670;2023-04-08T04:24:16;91625.69;;;1.95;77.01
44481;BME280;30184;42.018;23.670;2023-04-08T04:26:46;91630.63;;;1.90;77.46
44481;BME280;30184;42.018;23.670;2023-04-08T04:29:15;91631.41;;;1.90;77.33
44481;BME280;30184;42.018;23.670;2023-04-08T04:31:44;91629.91;;;1.93;77.42
44481;BME280;30184;42.018;23.670;2023-04-08T04:34:13;91627.63;;;1.95;77.48
44481;BME280;30184;42.018;23.670;2023-04-08T04:36:42;91633.75;;;1.99;77.75
44481;BME280;30184;42.018;23.670;2023-04-08T04:39:11;91625.75;;;2.02;77.49
44481;BME280;30184;42.018;23.670;2023-04-08T04:41:40;91626.16;;;2.08;77.60
44481;BME280;30184;42.018;23.670;2023-04-08T04:44:12;91617.00;;;2.12;77.32
44481;BME280;30184;42.018;23.670;2023-04-08T04:46:41;91622.75;;;2.18;76.92
44481;BME280;30184;42.018;23.670;2023-04-08T04:49:10;91622.00;;;2.21;76.59
44481;BME280;30184;42.018;23.670;2023-04-08T04:51:39;91626.22;;;2.25;76.25
44481;BME280;30184;42.018;23.670;2023-04-08T04:54:08;91621.66;;;2.33;76.27
44481;BME280;30184;42.018;23.670;2023-04-08T04:56:37;91632.03;;;2.42;75.69
44481;BME280;30184;42.018;23.670;2023-04-08T04:59:07;91617.16;;;2.48;75.39
44481;BME280;30184;42.018;23.670;2023-04-08T05:01:37;91625.59;;;2.57;74.88
44481;BME280;30184;42.018;23.670;2023-04-08T05:04:07;91623.72;;;2.68;74.57
44481;BME280;30184;42.018;23.670;2023-04-08T05:06:37;91620.28;;;2.78;74.57
44481;BME280;30184;42.018;23.670;2023-04-08T05:09:06;91632.94;;;2.92;74.08
44481;BME280;30184;42.018;23.670;2023-04-08T05:11:35;91635.63;;;2.99;73.45
44481;BME280;30184;42.018;23.670;2023-04-08T05:14:04;91634.88;;;3.02;73.22
44481;BME280;30184;42.018;23.670;2023-04-08T05:16:33;91631.09;;;3.14;73.51
44481;BME280;30184;42.018;23.670;2023-04-08T05:19:04;91618.44;;;3.28;73.19
44481;BME280;30184;42.018;23.670;2023-04-08T05:21:33;91626.13;;;3.41;72.63
44481;BME280;30184;42.018;23.670;2023-04-08T05:24:02;91626.09;;;3.55;71.17
44481;BME280;30184;42.018;23.670;2023-04-08T05:26:31;91620.34;;;3.67;70.57
44481;BME280;30184;42.018;23.670;2023-04-08T05:29:00;91622.66;;;3.79;70.09
44481;BME280;30184;42.018;23.670;2023-04-08T05:31:29;91618.81;;;3.87;69.59
44481;BME280;30184;42.018;23.670;2023-04-08T05:33:59;91622.63;;;3.93;69.06
44481;BME280;30184;42.018;23.670;2023-04-08T05:36:30;91624.94;;;3.98;69.31
44481;BME280;30184;42.018;23.670;2023-04-08T05:39:00;91625.28;;;4.07;69.37
44481;BME280;30184;42.018;23.670;2023-04-08T05:41:29;91626.81;;;4.16;69.10
44481;BME280;30184;42.018;23.670;2023-04-08T05:43:58;91621.78;;;4.21;69.09
44481;BME280;30184;42.018;23.670;2023-04-08T05:46:28;91619.84;;;4.32;68.47
44481;BME280;30184;42.018;23.670;2023-04-08T05:48:57;91620.19;;;4.41;67.85
44481;BME280;30184;42.018;23.670;2023-04-08T05:51:26;91610.59;;;4.37;67.70
44481;BME280;30184;42.018;23.670;2023-04-08T05:53:56;91617.13;;;4.39;67.51
44481;BME280;30184;42.018;23.670;2023-04-08T05:56:25;91602.13;;;4.49;67.62
44481;BME280;30184;42.018;23.670;2023-04-08T05:58:54;91602.09;;;4.56;67.62
44481;BME280;30184;42.018;23.670;2023-04-08T06:01:23;91612.78;;;4.67;67.68
44481;BME280;30184;42.018;23.670;2023-04-08T06:03:53;91600.03;;;4.85;67.11
44481;BME280;30184;42.018;23.670;2023-04-08T06:06:22;91601.47;;;5.04;66.10
44481;BME280;30184;42.018;23.670;2023-04-08T06:08:52;91594.03;;;5.22;65.48
44481;BME280;30184;42.018;23.670;2023-04-08T06:11:22;91590.50;;;5.36;63.62
44481;BME280;30184;42.018;23.670;2023-04-08T06:13:51;91588.06;;;5.48;63.53
44481;BME280;30184;42.018;23.670;2023-04-08T06:16:20;91584.91;;;5.60;63.28
44481;BME280;30184;42.018;23.670;2023-04-08T06:18:49;91587.91;;;5.70;62.37
44481;BME280;30184;42.018;23.670;2023-04-08T06:21:19;91590.13;;;5.82;62.16
44481;BME280;30184;42.018;23.670;2023-04-08T06:23:48;91586.97;;;5.87;61.59
44481;BME280;30184;42.018;23.670;2023-04-08T06:26:17;91583.13;;;5.91;61.85
44481;BME280;30184;42.018;23.670;2023-04-08T06:28:47;91588.84;;;5.93;61.30
44481;BME280;30184;42.018;23.670;2023-04-08T06:31:16;91578.47;;;5.95;61.52
44481;BME280;30184;42.018;23.670;2023-04-08T06:33:45;91581.06;;;6.03;61.76
44481;BME280;30184;42.018;23.670;2023-04-08T06:36:14;91583.94;;;6.22;61.80
44481;BME280;30184;42.018;23.670;2023-04-08T06:38:43;91584.88;;;6.43;60.23
44481;BME280;30184;42.018;23.670;2023-04-08T06:41:12;91576.66;;;6.57;59.73
44481;BME280;30184;42.018;23.670;2023-04-08T06:43:41;91575.94;;;6.83;58.75
44481;BME280;30184;42.018;23.670;2023-04-08T06:46:11;91579.94;;;6.98;57.81
44481;BME280;30184;42.018;23.670;2023-04-08T06:48:40;91544.47;;;7.00;57.28
44481;BME280;30184;42.018;23.670;2023-04-08T06:51:09;91565.53;;;7.35;56.70
44481;BME280;30184;42.018;23.670;2023-04-08T06:53:38;91561.41;;;7.54;56.52
44481;BME280;30184;42.018;23.670;2023-04-08T06:56:07;91566.91;;;7.70;55.79
44481;BME280;30184;42.018;23.670;2023-04-08T06:58:35;91565.41;;;7.93;55.23
44481;BME280;30184;42.018;23.670;2023-04-08T07:01:04;91564.09;;;8.01;55.09
44481;BME280;30184;42.018;23.670;2023-04-08T07:03:35;91566.66;;;8.31;54.00
44481;BME280;30184;42.018;23.670;2023-04-08T07:06:04;91560.16;;;8.48;51.94
44481;BME280;30184;42.018;23.670;2023-04-08T07:08:33;91568.13;;;8.75;52.87
44481;BME280;30184;42.018;23.670;2023-04-08T07:11:02;91560.75;;;8.95;51.48
44481;BME280;30184;42.018;23.670;2023-04-08T07:13:31;91559.81;;;9.02;51.43
44481;BME280;30184;42.018;23.670;2023-04-08T07:16:00;91561.47;;;9.16;50.92
44481;BME280;30184;42.018;23.670;2023-04-08T07:18:28;91568.75;;;9.19;52.50
44481;BME280;30184;42.018;23.670;2023-04-08T07:20:59;91565.97;;;9.39;50.70
44481;BME280;30184;42.018;23.670;2023-04-08T07:23:28;91551.28;;;9.56;51.92
44481;BME280;30184;42.018;23.670;2023-04-08T07:26:00;91549.59;;;9.78;50.79
44481;BME280;30184;42.018;23.670;2023-04-08T07:28:31;91546.09;;;9.78;49.31
44481;BME280;30184;42.018;23.670;2023-04-08T07:31:10;91552.78;;;10.05;49.33
44481;BME280;30184;42.018;23.670;2023-04-08T07:33:38;91542.69;;;10.06;48.30
44481;BME280;30184;42.018;23.670;2023-04-08T07:36:09;91546.00;;;9.97;47.63
44481;BME280;30184;42.018;23.670;2023-04-08T07:38:39;91542.63;;;9.93;47.94
44481;BME280;30184;42.018;23.670;2023-04-08T07:41:08;91542.13;;;9.82;47.97
44481;BME280;30184;42.018;23.670;2023-04-08T07:43:37;91538.75;;;9.78;49.56
44481;BME280;30184;42.018;23.670;2023-04-08T07:46:06;91544.94;;;9.79;47.41
44481;BME280;30184;42.018;23.670;2023-04-08T07:48:36;91544.34;;;9.71;47.19
44481;BME280;30184;42.018;23.670;2023-04-08T07:51:06;91540.59;;;9.65;46.24
44481;BME280;30184;42.018;23.670;2023-04-08T07:53:40;91547.13;;;9.51;46.12
44481;BME280;30184;42.018;23.670;2023-04-08T07:56:10;91529.19;;;9.57;47.32
44481;BME280;30184;42.018;23.670;2023-04-08T07:58:40;91535.03;;;9.72;45.63
44481;BME280;30184;42.018;23.670;2023-04-08T08:01:14;91526.75;;;10.08;46.17
44481;BME280;30184;42.018;23.670;2023-04-08T08:03:44;91531.78;;;10.38;44.02
44481;BME280;30184;42.018;23.670;2023-04-08T08:06:14;91529.66;;;10.46;42.13
44481;BME280;30184;42.018;23.670;2023-04-08T08:08:45;91530.59;;;10.39;40.46
44481;BME280;30184;42.018;23.670;2023-04-08T08:11:14;91529.59;;;10.62;40.71
44481;BME280;30184;42.018;23.670;2023-04-08T08:13:43;91529.22;;;10.89;40.26
44481;BME280;30184;42.018;23.670;2023-04-08T08:16:12;91526.84;;;11.04;40.01
44481;BME280;30184;42.018;23.670;2023-04-08T08:18:41;91526.41;;;11.05;39.19
44481;BME280;30184;42.018;23.670;2023-04-08T08:21:09;91528.06;;;11.15;40.73
44481;BME280;30184;42.018;23.670;2023-04-08T08:23:38;91521.88;;;11.15;40.90
44481;BME280;30184;42.018;23.670;2023-04-08T08:26:08;91524.38;;;11.09;42.22
44481;BME280;30184;42.018;23.670;2023-04-08T08:28:38;91524.47;;;11.06;41.88
44481;BME280;30184;42.018;23.670;2023-04-08T08:31:07;91522.31;;;11.01;41.59
44481;BME280;30184;42.018;23.670;2023-04-08T08:33:36;91521.75;;;10.93;41.63
44481;BME280;30184;42.018;23.670;2023-04-08T08:36:05;91523.38;;;11.03;41.43
44481;BME280;30184;42.018;23.670;2023-04-08T08:38:34;91518.28;;;10.93;40.25
44481;BME280;30184;42.018;23.670;2023-04-08T08:41:04;91514.59;;;10.99;41.13
44481;BME280;30184;42.018;23.670;2023-04-08T08:43:34;91513.84;;;11.11;41.11
44481;BME280;30184;42.018;23.670;2023-04-08T08:46:04;91507.09;;;11.16;40.66
44481;BME280;30184;42.018;23.670;2023-04-08T08:48:36;91500.81;;;11.19;39.79
44481;BME280;30184;42.018;23.670;2023-04-08T08:51:07;91505.56;;;11.15;41.23
44481;BME280;30184;42.018;23.670;2023-04-08T08:53:37;91513.84;;;11.11;41.65
44481;BME280;30184;42.018;23.670;2023-04-08T08:56:11;91515.00;;;10.98;41.18
44481;BME280;30184;42.018;23.670;2023-04-08T08:58:45;91516.75;;;11.04;41.01
44481;BME280;30184;42.018;23.670;2023-04-08T09:04:12;91503.38;;;11.60;39.40
44481;BME280;30184;42.018;23.670;2023-04-08T09:06:43;91503.94;;;11.81;41.03
44481;BME280;30184;42.018;23.670;2023-04-08T09:09:13;91505.56;;;11.66;38.60
44481;BME280;30184;42.018;23.670;2023-04-08T09:11:43;91512.84;;;11.81;39.77
44481;BME280;30184;42.018;23.670;2023-04-08T09:14:20;91507.59;;;11.87;38.93
44481;BME280;30184;42.018;23.670;2023-04-08T09:16:49;91517.84;;;11.83;38.94
44481;BME280;30184;42.018;23.670;2023-04-08T09:19:19;91506.63;;;11.68;39.33
44481;BME280;30184;42.018;23.670;2023-04-08T09:22:06;91507.72;;;11.71;40.31
44481;BME280;30184;42.018;23.670;2023-04-08T09:24:35;91507.50;;;11.78;39.78
44481;BME280;30184;42.018;23.670;2023-04-08T09:27:04;91510.03;;;11.85;39.79
44481;BME280;30184;42.018;23.670;2023-04-08T09:29:35;91508.03;;;11.98;39.81
44481;BME280;30184;42.018;23.670;2023-04-08T09:32:05;91501.88;;;12.19;39.00
44481;BME280;30184;42.018;23.670;2023-04-08T09:34:34;91497.25;;;12.29;37.94
44481;BME280;30184;42.018;23.670;2023-04-08T09:37:04;91490.38;;;12.37;37.00
44481;BME280;30184;42.018;23.670;2023-04-08T09:39:33;91496.44;;;12.63;36.79
44481;BME280;30184;42.018;23.670;2023-04-08T09:42:03;91493.41;;;12.83;35.55
44481;BME280;30184;42.018;23.670;2023-04-08T09:44:36;91499.94;;;12.85;35.37
44481;BME280;30184;42.018;23.670;2023-04-08T09:47:07;91490.31;;;12.71;34.74
44481;BME280;30184;42.018;23.670;2023-04-08T09:49:37;91499.16;;;12.63;34.80
44481;BME280;30184;42.018;23.670;2023-04-08T09:52:10;91494.38;;;12.67;35.81
44481;BME280;30184;42.018;23.670;2023-04-08T09:54:40;91501.47;;;12.86;36.97
44481;BME280;30184;42.018;23.670;2023-04-08T09:57:12;91497.47;;;13.09;37.00
44481;BME280;30184;42.018;23.670;2023-04-08T09:59:44;91496.34;;;13.19;37.76
44481;BME280;30184;42.018;23.670;2023-04-08T10:02:18;91484.94;;;13.33;37.78
44481;BME280;30184;42.018;23.670;2023-04-08T10:04:51;91475.13;;;13.54;35.41
44481;BME280;30184;42.018;23.670;2023-04-08T10:07:22;91475.88;;;13.45;35.33
44481;BME280;30184;42.018;23.670;2023-04-08T10:09:51;91473.66;;;13.62;36.09
44481;BME280;30184;42.018;23.670;2023-04-08T10:12:21;91483.41;;;13.81;36.44
44481;BME280;30184;42.018;23.670;2023-04-08T10:17:40;91484.38;;;14.06;36.11
44481;BME280;30184;42.018;23.670;2023-04-08T10:20:20;91477.84;;;14.12;35.81
44481;BME280;30184;42.018;23.670;2023-04-08T10:23:09;91473.00;;;13.98;36.17
44481;BME280;30184;42.018;23.670;2023-04-08T10:25:40;91474.22;;;14.06;35.60
44481;BME280;30184;42.018;23.670;2023-04-08T10:28:25;91483.44;;;14.09;36.27
44481;BME280;30184;42.018;23.670;2023-04-08T10:30:54;91485.44;;;14.17;34.67
44481;BME280;30184;42.018;23.670;2023-04-08T10:33:31;91486.78;;;14.04;35.01
44481;BME280;30184;42.018;23.670;2023-04-08T10:36:07;91493.75;;;14.05;35.67
44481;BME280;30184;42.018;23.670;2023-04-08T10:38:37;91478.59;;;14.04;35.32
44481;BME280;30184;42.018;23.670;2023-04-08T10:41:09;91479.22;;;14.17;35.38
44481;BME280;30184;42.018;23.670;2023-04-08T10:43:38;91478.47;;;14.35;35.09
44481;BME280;30184;42.018;23.670;2023-04-08T10:46:08;91480.16;;;14.41;34.50
44481;BME280;30184;42.018;23.670;2023-04-08T10:48:39;91482.25;;;14.37;34.39
44481;BME280;30184;42.018;23.670;2023-04-08T10:51:08;91487.44;;;14.35;32.88
44481;BME280;30184;42.018;23.670;2023-04-08T10:53:38;91473.47;;;14.15;33.80
44481;BME280;30184;42.018;23.670;2023-04-08T10:56:08;91491.03;;;14.14;34.36
44481;BME280;30184;42.018;23.670;2023-04-08T10:58:46;91489.97;;;14.02;34.98
44481;BME280;30184;42.018;23.670;2023-04-08T11:01:16;91493.31;;;14.06;36.06
44481;BME280;30184;42.018;23.670;2023-04-08T11:03:47;91503.78;;;14.08;34.99
44481;BME280;30184;42.018;23.670;2023-04-08T11:06:16;91486.66;;;14.16;35.43
44481;BME280;30184;42.018;23.670;2023-04-08T11:08:45;91484.22;;;14.37;34.73
44481;BME280;30184;42.018;23.670;2023-04-08T11:11:15;91489.56;;;14.49;33.66
44481;BME280;30184;42.018;23.670;2023-04-08T11:13:44;91492.44;;;14.55;33.87
44481;BME280;30184;42.018;23.670;2023-04-08T11:16:18;91500.03;;;14.69;32.84
44481;BME280;30184;42.018;23.670;2023-04-08T11:18:50;91490.31;;;14.41;33.05
44481;BME280;30184;42.018;23.670;2023-04-08T11:21:20;91498.81;;;14.52;32.70
44481;BME280;30184;42.018;23.670;2023-04-08T11:23:51;91496.66;;;14.29;32.70
44481;BME280;30184;42.018;23.670;2023-04-08T11:26:20;91490.56;;;13.97;33.24
44481;BME280;30184;42.018;23.670;2023-04-08T11:28:49;91488.34;;;13.65;34.34
44481;BME280;30184;42.018;23.670;2023-04-08T11:31:19;91480.69;;;13.91;34.94
44481;BME280;30184;42.018;23.670;2023-04-08T11:33:53;91471.78;;;14.08;33.63
44481;BME280;30184;42.018;23.670;2023-04-08T11:36:23;91462.38;;;14.18;33.35
44481;BME280;30184;42.018;23.670;2023-04-08T11:38:53;91458.44;;;14.38;33.52
44481;BME280;30184;42.018;23.670;2023-04-08T11:41:22;91460.91;;;14.63;33.33
44481;BME280;30184;42.018;23.670;2023-04-08T11:43:53;91456.59;;;14.89;33.12
44481;BME280;30184;42.018;23.670;2023-04-08T11:46:23;91442.75;;;15.02;33.18
44481;BME280;30184;42.018;23.670;2023-04-08T11:49:10;91432.69;;;15.17;31.83
44481;BME280;30184;42.018;23.670;2023-04-08T11:51:53;91429.25;;;14.99;31.76
44481;BME280;30184;42.018;23.670;2023-04-08T11:54:26;91432.13;;;14.95;32.37
44481;BME280;30184;42.018;23.670;2023-04-08T11:56:57;91432.78;;;14.81;32.18
44481;BME280;30184;42.018;23.670;2023-04-08T11:59:33;91432.84;;;14.26;32.07
44481;BME280;30184;42.018;23.670;2023-04-08T12:02:45;91419.47;;;14.28;31.89
44481;BME280;30184;42.018;23.670;2023-04-08T12:05:16;91424.94;;;14.10;32.40
44481;BME280;30184;42.018;23.670;2023-04-08T12:07:45;91418.88;;;13.88;32.81
44481;BME280;30184;42.018;23.670;2023-04-08T12:10:14;91419.63;;;13.79;33.44
44481;BME280;30184;42.018;23.670;2023-04-08T12:12:43;91414.31;;;13.75;33.92
44481;BME280;30184;42.018;23.670;2023-04-08T12:15:12;91417.81;;;13.85;34.92
44481;BME280;30184;42.018;23.670;2023-04-08T12:17:42;91417.22;;;14.08;34.32
44481;BME280;30184;42.018;23.670;2023-04-08T12:20:11;91414.00;;;14.37;34.19
44481;BME280;30184;42.018;23.670;2023-04-08T12:22:41;91417.34;;;14.60;33.22
44481;BME280;30184;42.018;23.670;2023-04-08T12:25:11;91413.56;;;14.57;33.49
44481;BME280;30184;42.018;23.670;2023-04-08T12:27:41;91411.44;;;14.61;33.47
44481;BME280;30184;42.018;23.670;2023-04-08T12:30:10;91414.59;;;14.69;33.28
44481;BME280;30184;42.018;23.670;2023-04-08T12:32:46;91403.22;;;14.70;33.81
44481;BME280;30184;42.018;23.670;2023-04-08T12:35:17;91404.41;;;14.87;34.51
44481;BME280;30184;42.018;23.670;2023-04-08T12:37:47;91399.25;;;14.80;34.00
44481;BME280;30184;42.018;23.670;2023-04-08T12:40:17;91397.34;;;15.05;33.53
44481;BME280;30184;42.018;23.670;2023-04-08T12:42:46;91389.84;;;15.23;32.72
44481;BME280;30184;42.018;23.670;2023-04-08T12:45:16;91389.72;;;15.18;33.09
44481;BME280;30184;42.018;23.670;2023-04-08T12:47:47;91390.09;;;15.35;33.28
44481;BME280;30184;42.018;23.670;2023-04-08T12:50:16;91382.72;;;15.50;33.02
44481;BME280;30184;42.018;23.670;2023-04-08T12:52:44;91392.47;;;15.42;33.92
44481;BME280;30184;42.018;23.670;2023-04-08T12:55:15;91381.47;;;15.60;32.82
44481;BME280;30184;42.018;23.670;2023-04-08T12:57:44;91388.69;;;15.72;32.98
44481;BME280;30184;42.018;23.670;2023-04-08T13:00:14;91381.94;;;15.82;32.85
44481;BME280;30184;42.018;23.670;2023-04-08T13:02:43;91374.19;;;15.81;31.72
44481;BME280;30184;42.018;23.670;2023-04-08T13:05:12;91369.53;;;15.96;31.81
44481;BME280;30184;42.018;23.670;2023-04-08T13:07:42;91365.19;;;16.04;31.04
44481;BME280;30184;42.018;23.670;2023-04-08T13:10:11;91362.00;;;16.05;30.78
44481;BME280;30184;42.018;23.670;2023-04-08T13:12:41;91361.16;;;15.99;30.79
44481;BME280;30184;42.018;23.670;2023-04-08T13:15:10;91361.16;;;15.99;30.69
44481;BME280;30184;42.018;23.670;2023-04-08T13:17:40;91382.28;;;15.99;30.84